createdAt,value
2022-10-13T00:01:11.822Z,10.30
2022-10-13T00:03:40.258Z,11.18
2022-10-13T00:06:10.308Z,10.60
2022-10-13T00:08:40.866Z,11.85
2022-10-13T00:11:14.091Z,11.23
2022-10-13T00:13:43.385Z,11.07
2022-10-13T00:16:12.830Z,10.18
2022-10-13T00:18:41.114Z,9.45
2022-10-13T00:21:10.984Z,8.93
2022-10-13T00:23:42.037Z,8.25
2022-10-13T00:26:12.142Z,8.57
2022-10-13T00:28:40.942Z,9.57
2022-10-13T00:31:19.489Z,7.80
2022-10-13T00:33:49.322Z,7.97
2022-10-13T00:36:17.821Z,7.05
2022-10-13T00:38:47.773Z,8.23
2022-10-13T00:41:16.352Z,7.70
2022-10-13T00:43:54.081Z,5.70
2022-10-13T00:46:22.713Z,5.57
2022-10-13T00:48:52.228Z,4.57
2022-10-13T00:51:23.551Z,4.68
2022-10-13T00:53:54.108Z,4.38
2022-10-13T00:56:24.814Z,4.78
2022-10-13T00:58:54.587Z,4.25
2022-10-13T01:01:22.660Z,3.67
2022-10-13T01:03:50.758Z,4.72
2022-10-13T01:06:23.717Z,5.15
2022-10-13T01:08:54.814Z,4.05
2022-10-13T01:11:48.976Z,4.67
2022-10-13T01:14:27.558Z,4.70
2022-10-13T01:17:05.358Z,4.75
2022-10-13T01:19:57.561Z,5.38
2022-10-13T01:22:45.640Z,4.30
2022-10-13T01:25:30.257Z,4.90
2022-10-13T01:28:22.126Z,3.83
2022-10-13T01:30:57.432Z,4.15
2022-10-13T01:33:36.732Z,3.90
2022-10-13T01:36:16.459Z,4.13
2022-10-13T01:38:50.273Z,3.55
2022-10-13T01:41:26.504Z,3.97
2022-10-13T01:44:01.748Z,3.35
2022-10-13T01:46:35.306Z,5.47
2022-10-13T01:49:07.249Z,4.15
2022-10-13T01:51:36.557Z,4.25
2022-10-13T01:54:04.966Z,4.07
2022-10-13T01:56:33.084Z,3.95
2022-10-13T01:59:05.161Z,4.45
2022-10-13T02:01:44.919Z,6.28
2022-10-13T02:04:25.103Z,4.95
2022-10-13T02:06:56.641Z,4.55
2022-10-13T02:12:03.868Z,3.35
2022-10-13T02:14:35.043Z,4.05
2022-10-13T02:17:06.455Z,3.72
2022-10-13T02:22:05.364Z,3.72
2022-10-13T02:24:34.460Z,3.88
2022-10-13T02:27:02.950Z,3.10
2022-10-13T02:29:31.174Z,3.42
2022-10-13T02:31:59.329Z,2.97
2022-10-13T02:34:29.016Z,3.45
2022-10-13T02:36:57.040Z,4.10
2022-10-13T02:39:25.159Z,3.45
2022-10-13T02:41:53.230Z,4.28
2022-10-13T02:44:21.285Z,3.45
2022-10-13T02:46:49.387Z,4.03
2022-10-13T02:49:17.516Z,4.68
2022-10-13T02:51:46.986Z,3.35
2022-10-13T02:54:15.064Z,3.70
2022-10-13T02:56:43.230Z,3.13
2022-10-13T02:59:12.152Z,4.43
2022-10-13T03:01:41.835Z,5.57
2022-10-13T03:04:10.452Z,5.38
2022-10-13T03:06:38.887Z,6.53
2022-10-13T03:09:08.579Z,6.20
2022-10-13T03:11:36.801Z,5.97
2022-10-13T03:14:05.002Z,5.47
2022-10-13T03:16:33.223Z,7.13
2022-10-13T03:19:01.490Z,6.78
2022-10-13T03:21:30.164Z,6.78
2022-10-13T03:23:58.318Z,7.93
2022-10-13T03:26:27.898Z,7.10
2022-10-13T03:28:56.075Z,7.20
2022-10-13T03:31:24.310Z,7.05
2022-10-13T03:33:52.793Z,7.57
2022-10-13T03:36:21.339Z,6.97
2022-10-13T03:38:49.466Z,6.22
2022-10-13T03:41:19.906Z,7.28
2022-10-13T03:43:49.498Z,5.63
2022-10-13T03:46:19.231Z,6.18
2022-10-13T03:48:49.099Z,6.43
2022-10-13T03:51:19.643Z,5.63
2022-10-13T03:53:48.740Z,5.03
2022-10-13T03:56:19.074Z,4.25
2022-10-13T03:58:47.163Z,3.90
2022-10-13T04:01:17.015Z,3.78
2022-10-13T04:03:45.220Z,4.38
2022-10-13T04:06:13.580Z,5.97
2022-10-13T04:08:41.838Z,5.20
2022-10-13T04:11:12.974Z,5.13
2022-10-13T04:13:41.307Z,6.30
2022-10-13T04:16:13.285Z,6.30
2022-10-13T04:18:44.809Z,6.30
2022-10-13T04:21:15.449Z,6.40
2022-10-13T04:23:43.791Z,6.50
2022-10-13T04:26:17.549Z,6.57
2022-10-13T04:28:46.410Z,6.07
2022-10-13T04:31:15.168Z,5.88
2022-10-13T04:33:45.880Z,5.32
2022-10-13T04:36:15.304Z,6.07
2022-10-13T04:38:44.375Z,6.22
2022-10-13T04:41:14.281Z,5.65
2022-10-13T04:43:42.765Z,5.78
2022-10-13T04:46:14.100Z,5.50
2022-10-13T04:48:44.448Z,5.40
2022-10-13T04:51:14.846Z,5.78
2022-10-13T04:53:42.980Z,5.72
2022-10-13T04:56:13.432Z,5.45
2022-10-13T04:58:42.760Z,5.40
2022-10-13T05:01:17.658Z,4.97
2022-10-13T05:03:52.178Z,5.07
2022-10-13T05:06:22.570Z,5.07
2022-10-13T05:08:50.998Z,5.78
2022-10-13T05:11:20.672Z,6.45
2022-10-13T05:13:49.288Z,5.10
2022-10-13T05:16:19.616Z,6.95
2022-10-13T05:18:47.866Z,6.10
2022-10-13T05:21:19.431Z,6.53
2022-10-13T05:26:18.554Z,5.53
2022-10-13T05:28:47.204Z,4.55
2022-10-13T05:31:17.132Z,5.05
2022-10-13T05:33:46.650Z,4.45
2022-10-13T05:36:18.413Z,5.18
2022-10-13T05:38:46.853Z,8.38
2022-10-13T05:41:15.796Z,7.70
2022-10-13T05:43:44.285Z,7.05
2022-10-13T05:46:12.686Z,6.15
2022-10-13T05:48:40.905Z,7.35
2022-10-13T05:51:14.967Z,6.60
2022-10-13T05:53:51.923Z,6.57
2022-10-13T05:56:24.937Z,5.93
2022-10-13T05:58:57.525Z,7.57
2022-10-13T06:01:30.201Z,6.78
2022-10-13T06:04:03.288Z,7.78
2022-10-13T06:06:31.896Z,5.32
2022-10-13T06:09:02.246Z,6.22
2022-10-13T06:11:30.439Z,5.10
2022-10-13T06:13:58.751Z,5.18
2022-10-13T06:16:26.925Z,4.45
2022-10-13T06:18:55.054Z,3.78
2022-10-13T06:21:23.183Z,3.97
2022-10-13T06:23:51.248Z,3.78
2022-10-13T06:26:20.719Z,2.80
2022-10-13T06:28:51.035Z,3.15
2022-10-13T06:31:19.956Z,4.15
2022-10-13T06:33:50.870Z,2.88
2022-10-13T06:36:18.996Z,3.63
2022-10-13T06:38:47.200Z,3.03
2022-10-13T06:41:15.307Z,3.55
2022-10-13T06:43:45.029Z,3.38
2022-10-13T06:46:13.772Z,2.97
2022-10-13T06:48:41.973Z,2.58
2022-10-13T06:51:12.808Z,2.47
2022-10-13T06:53:40.992Z,2.63
2022-10-13T06:56:09.854Z,3.65
2022-10-13T06:58:38.478Z,4.78
2022-10-13T07:01:09.322Z,4.28
2022-10-13T07:03:37.499Z,5.03
2022-10-13T07:06:07.240Z,3.72
2022-10-13T07:08:35.927Z,3.53
2022-10-13T07:11:12.941Z,3.35
2022-10-13T07:13:46.531Z,2.72
2022-10-13T07:16:17.536Z,3.25
2022-10-13T07:18:45.600Z,3.30
2022-10-13T07:21:13.741Z,2.72
2022-10-13T07:23:41.919Z,6.18
2022-10-13T07:26:10.835Z,5.63
2022-10-13T07:28:39.810Z,4.50
2022-10-13T07:31:13.839Z,4.90
2022-10-13T07:33:45.529Z,3.10
2022-10-13T07:36:14.165Z,3.53
2022-10-13T07:38:42.923Z,3.00
2022-10-13T07:41:13.427Z,3.40
2022-10-13T07:43:41.929Z,3.92
2022-10-13T07:46:11.736Z,3.30
2022-10-13T07:48:39.887Z,3.92
2022-10-13T07:51:11.475Z,4.82
2022-10-13T07:53:40.254Z,4.07
2022-10-13T07:56:11.969Z,3.67
2022-10-13T07:58:41.948Z,3.75
2022-10-13T08:01:10.492Z,4.53
2022-10-13T08:03:40.190Z,3.08
2022-10-13T08:06:12.568Z,4.10
2022-10-13T08:08:41.357Z,4.23
2022-10-13T08:11:16.130Z,4.55
2022-10-13T08:13:48.289Z,5.00
2022-10-13T08:16:16.440Z,3.40
2022-10-13T08:18:44.624Z,2.97
2022-10-13T08:24:06.463Z,3.22
2022-10-13T08:26:35.014Z,3.00
2022-10-13T08:29:20.295Z,2.47
2022-10-13T08:34:23.655Z,3.67
2022-10-13T08:36:56.327Z,7.63
2022-10-13T08:39:25.407Z,4.05
2022-10-13T08:41:54.294Z,3.97
2022-10-13T08:47:25.761Z,4.63
2022-10-13T08:49:59.782Z,4.47
2022-10-13T08:52:43.478Z,6.85
2022-10-13T08:55:21.457Z,4.22
2022-10-13T08:57:49.671Z,4.32
2022-10-13T09:00:18.667Z,4.25
2022-10-13T09:02:51.410Z,4.65
2022-10-13T09:05:30.821Z,4.78
2022-10-13T09:08:01.225Z,4.45
2022-10-13T09:10:29.431Z,3.20
2022-10-13T09:12:59.633Z,2.70
2022-10-13T09:15:27.850Z,2.95
2022-10-13T09:18:11.317Z,3.22
2022-10-13T09:20:39.988Z,2.58
2022-10-13T09:23:20.108Z,3.03
2022-10-13T09:25:50.120Z,2.47
2022-10-13T09:28:21.918Z,2.58
2022-10-13T09:31:01.383Z,2.47
2022-10-13T09:33:29.595Z,3.33
2022-10-13T09:36:16.542Z,2.45
2022-10-13T09:39:07.035Z,3.38
2022-10-13T09:41:36.349Z,2.45
2022-10-13T09:44:14.924Z,2.15
2022-10-13T09:46:50.073Z,2.58
2022-10-13T09:49:34.777Z,2.22
2022-10-13T09:52:05.841Z,2.35
2022-10-13T09:54:46.832Z,2.00
2022-10-13T09:57:30.071Z,3.30
2022-10-13T10:00:06.346Z,2.67
2022-10-13T10:02:37.472Z,1.75
2022-10-13T10:05:08.977Z,4.55
2022-10-13T10:07:37.165Z,2.33
2022-10-13T10:10:15.575Z,3.13
2022-10-13T10:12:44.981Z,2.45
2022-10-13T10:15:34.635Z,2.42
2022-10-13T10:18:08.793Z,2.60
2022-10-13T10:20:58.424Z,1.90
2022-10-13T10:23:38.317Z,2.30
2022-10-13T10:26:20.761Z,2.28
2022-10-13T10:29:08.777Z,1.73
2022-10-13T10:31:48.210Z,2.70
2022-10-13T10:34:30.001Z,2.63
2022-10-13T10:37:13.389Z,3.88
2022-10-13T10:39:49.311Z,2.92
2022-10-13T10:42:38.120Z,3.55
2022-10-13T10:45:17.280Z,2.38
2022-10-13T10:47:49.209Z,2.65
2022-10-13T10:50:19.346Z,3.15
2022-10-13T10:52:56.173Z,3.10
2022-10-13T10:55:31.455Z,2.25
2022-10-13T10:58:13.637Z,2.47
2022-10-13T11:00:50.196Z,2.20
2022-10-13T11:03:29.915Z,3.15
2022-10-13T11:06:04.889Z,2.72
2022-10-13T11:08:42.369Z,2.92
2022-10-13T11:11:37.993Z,2.45
2022-10-13T11:14:32.191Z,2.40
2022-10-13T11:17:11.455Z,3.05
2022-10-13T11:19:40.740Z,2.28
2022-10-13T11:22:14.478Z,3.25
2022-10-13T11:24:48.898Z,2.47
2022-10-13T11:27:25.679Z,3.05
2022-10-13T11:29:58.448Z,2.63
2022-10-13T11:32:56.464Z,3.22
2022-10-13T11:35:28.112Z,2.20
2022-10-13T11:38:17.570Z,2.58
2022-10-13T11:41:07.200Z,2.70
2022-10-13T11:43:48.997Z,2.88
2022-10-13T11:46:59.149Z,2.75
2022-10-13T11:49:46.424Z,3.33
2022-10-13T11:52:45.856Z,2.80
2022-10-13T11:55:19.057Z,1.75
2022-10-13T11:57:47.548Z,2.55
2022-10-13T12:00:19.196Z,2.50
2022-10-13T12:02:53.501Z,2.50
2022-10-13T12:05:24.468Z,2.30
2022-10-13T12:07:55.723Z,2.30
2022-10-13T12:10:29.581Z,2.90
2022-10-13T12:12:59.255Z,2.13
2022-10-13T12:15:35.273Z,2.40
2022-10-13T12:18:22.737Z,3.00
2022-10-13T12:20:55.440Z,1.77
2022-10-13T12:23:24.487Z,1.80
2022-10-13T12:25:58.052Z,2.25
2022-10-13T12:28:29.092Z,2.28
2022-10-13T12:30:59.172Z,2.05
2022-10-13T12:33:35.532Z,2.00
2022-10-13T12:36:14.745Z,2.10
2022-10-13T12:38:48.595Z,2.17
2022-10-13T12:41:21.739Z,1.70
2022-10-13T12:43:50.500Z,2.00
2022-10-13T12:46:37.181Z,1.63
2022-10-13T12:49:08.149Z,1.67
2022-10-13T12:51:39.541Z,3.17
2022-10-13T12:54:09.881Z,1.90
2022-10-13T12:56:38.407Z,2.05
2022-10-13T12:59:06.662Z,2.05
2022-10-13T13:01:36.169Z,2.22
2022-10-13T13:04:20.241Z,1.77
2022-10-13T13:06:57.328Z,2.55
2022-10-13T13:09:30.632Z,1.70
2022-10-13T13:12:24.503Z,2.05
2022-10-13T13:14:55.146Z,1.75
2022-10-13T13:17:52.991Z,2.33
2022-10-13T13:22:52.162Z,1.83
2022-10-13T13:25:20.605Z,1.63
2022-10-13T13:27:48.886Z,2.15
2022-10-13T13:30:19.400Z,2.17
2022-10-13T13:32:47.840Z,2.13
2022-10-13T13:35:16.497Z,1.67
2022-10-13T13:37:50.011Z,7.60
2022-10-13T13:40:20.656Z,2.25
2022-10-13T13:42:48.777Z,2.30
2022-10-13T13:45:18.224Z,2.25
2022-10-13T13:47:46.886Z,1.73
2022-10-13T13:50:18.771Z,1.40
2022-10-13T13:52:48.440Z,2.17
2022-10-13T13:55:17.070Z,2.17
2022-10-13T13:57:45.837Z,2.00
2022-10-13T14:00:16.663Z,1.77
2022-10-13T14:02:46.401Z,2.08
2022-10-13T14:05:15.396Z,1.70
2022-10-13T14:07:43.642Z,1.42
2022-10-13T14:10:13.349Z,1.85
2022-10-13T14:12:41.596Z,1.52
2022-10-13T14:15:11.385Z,1.75
2022-10-13T14:17:39.720Z,2.40
2022-10-13T14:20:08.785Z,1.70
2022-10-13T14:22:39.048Z,1.83
2022-10-13T14:25:08.681Z,2.05
2022-10-13T14:27:38.963Z,1.40
2022-10-13T14:30:08.733Z,1.92
2022-10-13T14:32:39.014Z,2.05
2022-10-13T14:35:08.530Z,2.00
2022-10-13T14:37:36.960Z,1.92
2022-10-13T14:40:06.356Z,3.05
2022-10-13T14:42:34.756Z,1.85
2022-10-13T14:45:06.588Z,1.48
2022-10-13T14:47:35.106Z,1.80
2022-10-13T14:50:03.407Z,1.83
2022-10-13T14:52:31.947Z,1.88
2022-10-13T14:55:00.350Z,1.90
2022-10-13T14:57:28.805Z,1.73
2022-10-13T15:00:01.726Z,1.77
2022-10-13T15:02:31.936Z,1.40
2022-10-13T15:05:00.441Z,2.25
2022-10-13T15:07:28.828Z,1.90
2022-10-13T15:10:07.214Z,1.70
2022-10-13T15:12:35.842Z,1.75
2022-10-13T15:15:04.875Z,1.63
2022-10-13T15:17:34.986Z,2.30
2022-10-13T15:20:04.016Z,2.28
2022-10-13T15:22:32.872Z,2.40
2022-10-13T15:25:01.157Z,2.05
2022-10-13T15:27:29.571Z,2.53
2022-10-13T15:29:58.056Z,2.30
2022-10-13T15:32:26.609Z,2.10
2022-10-13T15:34:56.464Z,2.13
2022-10-13T15:37:24.863Z,1.95
2022-10-13T15:39:57.368Z,2.38
2022-10-13T15:42:26.336Z,1.98
2022-10-13T15:45:11.568Z,2.53
2022-10-13T15:47:41.202Z,2.00
2022-10-13T15:50:12.026Z,1.52
2022-10-13T15:52:41.378Z,2.10
2022-10-13T15:55:10.717Z,2.03
2022-10-13T15:57:39.313Z,2.63
2022-10-13T16:00:10.020Z,2.05
2022-10-13T16:02:40.486Z,1.90
2022-10-13T16:05:13.175Z,3.23
2022-10-13T16:07:43.023Z,2.75
2022-10-13T16:10:14.007Z,2.20
2022-10-13T16:12:48.355Z,5.32
2022-10-13T16:15:18.574Z,2.10
2022-10-13T16:17:46.774Z,1.98
2022-10-13T16:20:16.236Z,2.60
2022-10-13T16:22:44.427Z,2.00
2022-10-13T16:25:12.803Z,2.50
2022-10-13T16:27:44.359Z,1.67
2022-10-13T16:30:13.578Z,2.47
2022-10-13T16:32:41.803Z,2.00
2022-10-13T16:35:10.340Z,1.95
2022-10-13T16:37:40.033Z,1.67
2022-10-13T16:40:09.352Z,2.00
2022-10-13T16:42:37.584Z,2.05
2022-10-13T16:45:06.937Z,1.63
2022-10-13T16:47:35.036Z,1.70
2022-10-13T16:50:06.420Z,2.00
2022-10-13T16:52:34.523Z,3.03
2022-10-13T16:55:04.216Z,2.45
2022-10-13T16:57:32.777Z,2.25
2022-10-13T17:00:01.364Z,1.98
2022-10-13T17:02:29.811Z,2.22
2022-10-13T17:04:58.009Z,2.63
2022-10-13T17:07:26.168Z,1.88
2022-10-13T17:09:54.650Z,2.28
2022-10-13T17:12:24.207Z,1.63
2022-10-13T17:14:52.316Z,1.65
2022-10-13T17:17:20.934Z,1.75
2022-10-13T17:19:49.449Z,1.60
2022-10-13T17:22:17.761Z,2.00
2022-10-13T17:24:48.453Z,2.40
2022-10-13T17:27:16.959Z,2.50
2022-10-13T17:29:46.563Z,2.40
2022-10-13T17:32:15.168Z,1.95
2022-10-13T17:34:43.285Z,2.50
2022-10-13T17:37:11.465Z,2.42
2022-10-13T17:39:40.019Z,2.50
2022-10-13T17:42:08.400Z,2.95
2022-10-13T17:44:36.570Z,2.58
2022-10-13T17:47:06.292Z,1.90
2022-10-13T17:49:34.365Z,1.85
2022-10-13T17:52:02.632Z,2.47
2022-10-13T17:54:31.017Z,2.42
2022-10-13T17:56:59.362Z,2.50
2022-10-13T17:59:27.539Z,2.55
2022-10-13T18:01:56.085Z,2.45
2022-10-13T18:04:25.933Z,3.05
2022-10-13T18:06:54.526Z,3.40
2022-10-13T18:09:24.627Z,3.10
2022-10-13T18:11:55.314Z,3.20
2022-10-13T18:14:25.373Z,3.07
2022-10-13T18:16:54.529Z,3.15
2022-10-13T18:19:22.945Z,3.67
2022-10-13T18:21:53.416Z,3.90
2022-10-13T18:24:22.070Z,3.35
2022-10-13T18:26:50.628Z,3.10
2022-10-13T18:29:19.074Z,3.05
2022-10-13T18:31:47.801Z,2.97
2022-10-13T18:34:18.187Z,3.05
2022-10-13T18:36:48.678Z,3.17
2022-10-13T18:39:19.760Z,3.47
2022-10-13T18:41:49.457Z,4.15
2022-10-13T18:44:17.925Z,4.03
2022-10-13T18:46:46.651Z,4.10
2022-10-13T18:49:18.422Z,3.38
2022-10-13T18:51:47.256Z,4.18
2022-10-13T18:54:17.356Z,6.65
2022-10-13T18:56:45.736Z,4.70
2022-10-13T18:59:13.936Z,3.97
2022-10-13T19:01:43.086Z,3.30
2022-10-13T19:04:12.989Z,3.78
2022-10-13T19:06:43.051Z,3.90
2022-10-13T19:09:15.525Z,5.15
2022-10-13T19:11:45.725Z,4.22
2022-10-13T19:14:14.852Z,5.82
2022-10-13T19:16:44.888Z,3.97
2022-10-13T19:19:13.700Z,5.35
2022-10-13T19:21:42.479Z,3.90
2022-10-13T19:24:11.950Z,3.95
2022-10-13T19:26:41.732Z,4.25
2022-10-13T19:29:14.395Z,4.03
2022-10-13T19:31:45.182Z,5.20
2022-10-13T19:34:14.858Z,5.13
2022-10-13T19:36:45.238Z,4.68
2022-10-13T19:39:16.655Z,5.05
2022-10-13T19:41:46.324Z,5.78
2022-10-13T19:44:18.996Z,5.53
2022-10-13T19:46:51.919Z,4.93
2022-10-13T19:49:22.524Z,4.57
2022-10-13T19:51:53.783Z,8.10
2022-10-13T19:54:23.216Z,5.57
2022-10-13T19:56:52.569Z,4.22
2022-10-13T19:59:23.396Z,4.30
2022-10-13T20:01:52.169Z,4.05
2022-10-13T20:04:21.575Z,3.88
2022-10-13T20:06:50.393Z,3.50
2022-10-13T20:09:19.575Z,3.80
2022-10-13T20:11:49.029Z,4.35
2022-10-13T20:14:17.712Z,3.88
2022-10-13T20:16:47.340Z,3.58
2022-10-13T20:19:19.785Z,3.42
2022-10-13T20:21:51.793Z,3.63
2022-10-13T20:24:21.596Z,3.40
2022-10-13T20:26:50.230Z,3.70
2022-10-13T20:29:18.688Z,4.00
2022-10-13T20:31:48.168Z,2.95
2022-10-13T20:34:16.348Z,3.08
2022-10-13T20:36:44.651Z,2.45
2022-10-13T20:39:12.740Z,2.70
2022-10-13T20:41:41.037Z,2.58
2022-10-13T20:44:11.070Z,2.03
2022-10-13T20:46:39.186Z,2.22
2022-10-13T20:49:11.477Z,2.85
2022-10-13T20:51:40.971Z,2.55
2022-10-13T20:54:09.535Z,2.45
2022-10-13T20:56:38.008Z,2.30
2022-10-13T20:59:07.905Z,2.00
2022-10-13T21:01:37.119Z,2.15
2022-10-13T21:04:06.167Z,2.85
2022-10-13T21:06:36.258Z,2.13
2022-10-13T21:09:05.715Z,2.25
2022-10-13T21:11:34.146Z,1.88
2022-10-13T21:14:06.369Z,1.85
2022-10-13T21:16:35.659Z,2.72
2022-10-13T21:19:04.087Z,2.25
2022-10-13T21:21:34.498Z,2.13
2022-10-13T21:24:06.224Z,2.33
2022-10-13T21:26:34.975Z,2.63
2022-10-13T21:29:03.237Z,2.58
2022-10-13T21:31:31.761Z,3.67
2022-10-13T21:34:00.020Z,2.47
2022-10-13T21:36:30.337Z,2.53
2022-10-13T21:39:00.028Z,2.70
2022-10-13T21:41:30.364Z,2.58
2022-10-13T21:43:58.562Z,3.08
2022-10-13T21:46:28.846Z,3.00
2022-10-13T21:48:58.677Z,4.05
2022-10-13T21:51:29.577Z,5.07
2022-10-13T21:53:59.825Z,7.03
2022-10-13T21:56:29.833Z,4.07
2022-10-13T21:58:58.019Z,3.67
2022-10-13T22:01:26.473Z,3.65
2022-10-13T22:03:56.586Z,2.97
2022-10-13T22:06:25.472Z,2.60
2022-10-13T22:08:55.685Z,2.92
2022-10-13T22:11:26.192Z,3.40
2022-10-13T22:13:56.898Z,2.42
2022-10-13T22:16:27.030Z,2.72
2022-10-13T22:18:57.111Z,2.72
2022-10-13T22:21:27.985Z,2.72
2022-10-13T22:23:58.942Z,3.05
2022-10-13T22:26:28.558Z,2.85
2022-10-13T22:28:59.593Z,3.03
2022-10-13T22:31:28.703Z,2.65
2022-10-13T22:33:57.025Z,2.10
2022-10-13T22:36:26.377Z,1.55
2022-10-13T22:38:56.539Z,2.60
2022-10-13T22:41:25.093Z,2.13
2022-10-13T22:43:55.476Z,2.28
2022-10-13T22:46:27.410Z,2.15
2022-10-13T22:48:56.389Z,1.85
2022-10-13T22:51:27.454Z,1.92
2022-10-13T22:53:56.581Z,1.92
2022-10-13T22:56:26.692Z,2.40
2022-10-13T22:58:57.168Z,3.15
2022-10-13T23:01:27.000Z,1.92
2022-10-13T23:03:57.362Z,2.40
2022-10-13T23:06:28.239Z,2.40
2022-10-13T23:08:56.711Z,2.23
2022-10-13T23:11:24.804Z,2.13
2022-10-13T23:13:53.092Z,3.53
2022-10-13T23:16:23.870Z,2.40
2022-10-13T23:18:54.075Z,2.80
2022-10-13T23:21:23.558Z,2.78
2022-10-13T23:23:56.226Z,2.60
2022-10-13T23:26:25.038Z,2.25
2022-10-13T23:28:53.269Z,3.35
2022-10-13T23:31:21.580Z,2.97
2022-10-13T23:33:50.068Z,2.60
2022-10-13T23:36:21.886Z,2.28
2022-10-13T23:38:50.211Z,1.73
2022-10-13T23:41:18.353Z,2.38
2022-10-13T23:43:46.822Z,4.05
2022-10-13T23:46:14.923Z,2.53
2022-10-13T23:48:43.249Z,2.50
2022-10-13T23:51:13.884Z,2.20
2022-10-13T23:53:44.012Z,2.27
2022-10-13T23:56:13.299Z,2.05
2022-10-13T23:58:42.982Z,2.30
